Hoogstraten, Belgium
Current Conditions -  °F | °C
As of 6:25 PM on Thursday 27 Nov 2014 (Local Time) from EHGR Reporting Station
Haze Haze  
Wind Chill: 42°   Ceiling: 500
Heat Index: 46°   Visibility: 2.7mi
Dew Point: 45°   Wind: 9mph
Humidity: 93%   Direction: 110°ESE
Pressure: 29.68"   Gusts: NA
Location:  51.4°N, 4.76°E
Report Text: EHGR 271725Z AUTO 11008KT 4400 BR BKN005 OVC006 08/07 Q1005 YLO
Loading
Personal Weather Stations






























Interactive Weather Map New forecast layout! Learn more

10-Day Weather Forecast

Advertisements
Track Severe Weather on mobile